createdAt,value
2022-08-19T00:01:01.058Z,22.70
2022-08-19T00:02:03.033Z,22.70
2022-08-19T00:03:05.692Z,22.70
2022-08-19T00:04:11.014Z,22.70
2022-08-19T00:05:15.589Z,22.70
2022-08-19T00:06:18.147Z,22.70
2022-08-19T00:07:22.944Z,22.70
2022-08-19T00:08:25.448Z,22.70
2022-08-19T00:09:28.589Z,22.70
2022-08-19T00:10:30.608Z,22.70
2022-08-19T00:11:32.653Z,22.70
2022-08-19T00:12:35.250Z,22.70
2022-08-19T00:13:47.398Z,22.70
2022-08-19T00:14:49.479Z,22.60
2022-08-19T00:15:51.598Z,22.60
2022-08-19T00:16:55.662Z,22.60
2022-08-19T00:17:57.647Z,22.60
2022-08-19T00:18:59.883Z,22.60
2022-08-19T00:20:01.758Z,22.60
2022-08-19T00:21:04.260Z,22.60
2022-08-19T00:22:06.866Z,22.60
2022-08-19T00:23:08.607Z,22.60
2022-08-19T00:24:12.536Z,22.60
2022-08-19T00:25:15.754Z,22.60
2022-08-19T00:26:17.820Z,22.50
2022-08-19T00:27:26.382Z,22.60
2022-08-19T00:28:28.704Z,22.60
2022-08-19T00:29:30.591Z,22.50
2022-08-19T00:30:32.647Z,22.50
2022-08-19T00:31:35.104Z,22.50
2022-08-19T00:32:37.486Z,22.50
2022-08-19T00:33:39.559Z,22.50
2022-08-19T00:34:41.603Z,22.50
2022-08-19T00:35:43.529Z,22.50
2022-08-19T00:36:45.953Z,22.50
2022-08-19T00:37:49.182Z,22.50
2022-08-19T00:38:52.787Z,22.50
2022-08-19T00:39:57.038Z,22.50
2022-08-19T00:40:59.906Z,22.50
2022-08-19T00:42:01.833Z,22.50
2022-08-19T00:43:14.230Z,22.50
2022-08-19T00:44:27.382Z,22.50
2022-08-19T00:45:33.305Z,22.50
2022-08-19T00:46:41.302Z,22.40
2022-08-19T00:47:43.177Z,22.40
2022-08-19T00:48:45.304Z,22.30
2022-08-19T00:49:58.795Z,22.30
2022-08-19T00:51:02.301Z,22.30
2022-08-19T00:52:14.636Z,22.30
2022-08-19T00:53:21.344Z,22.30
2022-08-19T00:54:29.923Z,22.30
2022-08-19T00:55:34.420Z,22.30
2022-08-19T00:56:36.821Z,22.30
2022-08-19T00:57:43.293Z,22.30
2022-08-19T00:58:45.157Z,22.30
2022-08-19T00:59:58.766Z,22.20
2022-08-19T01:01:05.488Z,22.20
2022-08-19T01:02:08.129Z,22.20
2022-08-19T01:03:13.236Z,22.20
2022-08-19T01:04:15.386Z,22.20
2022-08-19T01:05:22.178Z,22.20
2022-08-19T01:06:24.575Z,22.20
2022-08-19T01:07:26.615Z,22.20
2022-08-19T01:08:28.481Z,22.20
2022-08-19T01:09:31.978Z,22.20
2022-08-19T01:10:47.745Z,22.20
2022-08-19T01:11:50.597Z,22.20
2022-08-19T01:12:53.836Z,22.20
2022-08-19T01:13:56.187Z,22.20
2022-08-19T01:14:59.863Z,22.20
2022-08-19T01:16:09.629Z,22.20
2022-08-19T01:17:13.741Z,22.20
2022-08-19T01:18:18.405Z,22.20
2022-08-19T01:19:26.401Z,22.20
2022-08-19T01:20:28.489Z,22.20
2022-08-19T01:21:41.475Z,22.10
2022-08-19T01:22:47.550Z,22.20
2022-08-19T01:23:49.531Z,22.20
2022-08-19T01:24:53.058Z,22.10
2022-08-19T01:25:57.270Z,22.10
2022-08-19T01:27:00.925Z,22.10
2022-08-19T01:28:10.565Z,22.10
2022-08-19T01:29:13.871Z,22.10
2022-08-19T01:30:32.692Z,22.10
2022-08-19T01:32:44.932Z,22.00
2022-08-19T01:33:47.909Z,22.00
2022-08-19T01:34:50.046Z,22.00
2022-08-19T01:35:52.546Z,22.00
2022-08-19T01:36:54.632Z,22.00
2022-08-19T01:37:59.359Z,22.00
2022-08-19T01:39:04.544Z,22.00
2022-08-19T01:40:09.396Z,22.00
2022-08-19T01:41:13.014Z,22.00
2022-08-19T01:42:14.722Z,22.00
2022-08-19T01:43:16.904Z,22.00
2022-08-19T01:44:21.491Z,22.00
2022-08-19T01:45:26.011Z,22.00
2022-08-19T01:46:28.353Z,22.00
2022-08-19T01:47:30.538Z,22.00
2022-08-19T01:48:38.102Z,22.00
2022-08-19T01:49:39.824Z,22.00
2022-08-19T01:50:41.984Z,22.00
2022-08-19T01:51:43.978Z,22.00
2022-08-19T01:52:46.276Z,22.00
2022-08-19T01:53:52.415Z,21.90
2022-08-19T01:54:54.661Z,21.90
2022-08-19T01:55:56.845Z,21.90
2022-08-19T01:57:06.225Z,22.00
2022-08-19T01:58:32.865Z,21.90
2022-08-19T01:59:37.350Z,21.90
2022-08-19T02:00:39.538Z,21.90
2022-08-19T02:01:42.096Z,21.90
2022-08-19T02:02:44.350Z,21.90
2022-08-19T02:03:47.059Z,21.90
2022-08-19T02:04:49.431Z,21.90
2022-08-19T02:06:00.744Z,21.90
2022-08-19T02:07:03.743Z,21.90
2022-08-19T02:08:06.330Z,21.90
2022-08-19T02:09:09.547Z,21.90
2022-08-19T02:10:17.536Z,21.80
2022-08-19T02:11:27.706Z,21.90
2022-08-19T02:12:29.634Z,21.80
2022-08-19T02:13:31.366Z,21.80
2022-08-19T02:14:35.994Z,21.80
2022-08-19T02:15:38.468Z,21.80
2022-08-19T02:16:41.590Z,21.80
2022-08-19T02:17:43.923Z,21.80
2022-08-19T02:18:46.160Z,21.80
2022-08-19T02:19:49.883Z,21.80
2022-08-19T02:20:51.920Z,21.80
2022-08-19T02:21:53.879Z,21.80
2022-08-19T02:22:55.802Z,21.80
2022-08-19T02:23:58.849Z,21.80
2022-08-19T02:25:01.048Z,21.80
2022-08-19T02:26:02.928Z,21.80
2022-08-19T02:27:05.927Z,21.80
2022-08-19T02:28:08.379Z,21.80
2022-08-19T02:29:10.300Z,21.70
2022-08-19T02:30:20.078Z,21.70
2022-08-19T02:31:23.985Z,21.70
2022-08-19T02:32:28.206Z,21.70
2022-08-19T02:33:31.128Z,21.70
2022-08-19T02:34:32.955Z,21.70
2022-08-19T02:35:34.856Z,21.60
2022-08-19T02:36:36.641Z,21.60
2022-08-19T02:38:03.806Z,21.70
2022-08-19T02:39:05.905Z,21.70
2022-08-19T02:40:12.520Z,21.60
2022-08-19T02:41:21.587Z,21.60
2022-08-19T02:42:28.485Z,21.60
2022-08-19T02:43:34.550Z,21.60
2022-08-19T02:44:36.569Z,21.50
2022-08-19T02:45:41.795Z,21.60
2022-08-19T02:46:45.969Z,21.60
2022-08-19T02:47:47.765Z,21.50
2022-08-19T02:48:51.393Z,21.60
2022-08-19T02:49:53.345Z,21.60
2022-08-19T02:50:58.080Z,21.50
2022-08-19T02:51:59.996Z,21.60
2022-08-19T02:53:01.948Z,21.60
2022-08-19T02:54:05.490Z,21.50
2022-08-19T02:55:07.969Z,21.60
2022-08-19T02:56:09.866Z,21.50
2022-08-19T02:57:11.865Z,21.50
2022-08-19T02:58:15.596Z,21.50
2022-08-19T02:59:17.602Z,21.50
2022-08-19T03:00:22.322Z,21.50
2022-08-19T03:01:33.968Z,21.50
2022-08-19T03:02:35.973Z,21.50
2022-08-19T03:03:38.823Z,21.50
2022-08-19T03:04:40.741Z,21.50
2022-08-19T03:05:48.088Z,21.40
2022-08-19T03:07:02.552Z,21.50
2022-08-19T03:08:13.980Z,21.40
2022-08-19T03:09:17.340Z,21.50
2022-08-19T03:10:19.417Z,21.50
2022-08-19T03:11:24.466Z,21.40
2022-08-19T03:12:26.739Z,21.40
2022-08-19T03:13:29.236Z,21.50
2022-08-19T03:14:35.102Z,21.40
2022-08-19T03:15:41.280Z,21.50
2022-08-19T03:16:51.412Z,21.50
2022-08-19T03:17:53.623Z,21.50
2022-08-19T03:18:58.293Z,21.50
2022-08-19T03:20:00.291Z,21.50
2022-08-19T03:21:02.307Z,21.50
2022-08-19T03:22:05.278Z,21.50
2022-08-19T03:23:07.304Z,21.50
2022-08-19T03:24:09.876Z,21.50
2022-08-19T03:25:13.152Z,21.50
2022-08-19T03:26:17.132Z,21.50
2022-08-19T03:27:19.079Z,21.50
2022-08-19T03:28:22.181Z,21.50
2022-08-19T03:29:25.333Z,21.50
2022-08-19T03:30:33.316Z,21.50
2022-08-19T03:31:44.763Z,21.50
2022-08-19T03:32:57.331Z,21.50
2022-08-19T03:33:59.198Z,21.50
2022-08-19T03:35:01.432Z,21.50
2022-08-19T03:36:16.132Z,21.50
2022-08-19T03:37:18.041Z,21.50
2022-08-19T03:38:19.966Z,21.50
2022-08-19T03:39:22.509Z,21.50
2022-08-19T03:40:24.476Z,21.50
2022-08-19T03:41:34.104Z,21.50
2022-08-19T03:42:56.909Z,21.50
2022-08-19T03:43:59.483Z,21.50
2022-08-19T03:45:01.276Z,21.50
2022-08-19T03:46:09.425Z,21.50
2022-08-19T03:47:16.281Z,21.50
2022-08-19T03:48:18.481Z,21.50
2022-08-19T03:49:21.274Z,21.50
2022-08-19T03:50:29.157Z,21.50
2022-08-19T03:51:35.945Z,21.50
2022-08-19T03:52:38.404Z,21.50
2022-08-19T03:53:40.752Z,21.50
2022-08-19T03:54:43.123Z,21.50
2022-08-19T03:55:45.624Z,21.60
2022-08-19T03:56:50.446Z,21.60
2022-08-19T03:57:55.202Z,21.60
2022-08-19T03:59:03.225Z,21.60
2022-08-19T04:00:13.658Z,21.60
2022-08-19T04:01:19.864Z,21.60
2022-08-19T04:02:22.571Z,21.60
2022-08-19T04:03:27.850Z,21.60
2022-08-19T04:04:31.872Z,21.60
2022-08-19T04:05:33.991Z,21.60
2022-08-19T04:06:39.509Z,21.60
2022-08-19T04:07:41.940Z,21.70
2022-08-19T04:08:45.917Z,21.70
2022-08-19T04:09:48.173Z,21.70
2022-08-19T04:10:51.081Z,21.70
2022-08-19T04:11:55.504Z,21.70
2022-08-19T04:12:57.646Z,21.70
2022-08-19T04:14:00.376Z,21.70
2022-08-19T04:15:07.233Z,21.80
2022-08-19T04:16:11.098Z,21.70
2022-08-19T04:17:15.271Z,21.80
2022-08-19T04:18:17.452Z,21.80
2022-08-19T04:19:21.604Z,21.80
2022-08-19T04:20:23.502Z,21.90
2022-08-19T04:21:28.009Z,21.80
2022-08-19T04:22:29.885Z,21.90
2022-08-19T04:23:32.728Z,21.90
2022-08-19T04:24:36.167Z,21.90
2022-08-19T04:25:43.481Z,21.90
2022-08-19T04:26:46.298Z,22.00
2022-08-19T04:27:49.606Z,22.00
2022-08-19T04:28:52.957Z,22.00
2022-08-19T04:29:56.224Z,22.00
2022-08-19T04:30:59.135Z,22.10
2022-08-19T04:32:08.550Z,22.00
2022-08-19T04:33:13.045Z,22.10
2022-08-19T04:34:18.681Z,22.10
2022-08-19T04:35:24.432Z,22.10
2022-08-19T04:36:30.379Z,22.10
2022-08-19T04:37:35.404Z,22.10
2022-08-19T04:38:37.809Z,22.20
2022-08-19T04:40:02.308Z,22.20
2022-08-19T04:41:23.621Z,22.20
2022-08-19T04:42:41.021Z,22.20
2022-08-19T04:43:42.956Z,22.30
2022-08-19T04:44:46.307Z,22.30
2022-08-19T04:45:48.845Z,22.30
2022-08-19T04:46:54.715Z,22.30
2022-08-19T04:48:27.262Z,22.40
2022-08-19T04:49:23.520Z,22.40
2022-08-19T04:50:27.413Z,22.50
2022-08-19T04:51:31.736Z,22.40
2022-08-19T04:52:33.641Z,22.50
2022-08-19T04:53:38.221Z,22.50
2022-08-19T04:54:40.231Z,22.60
2022-08-19T04:55:43.820Z,22.60
2022-08-19T04:56:45.673Z,22.60
2022-08-19T04:57:47.576Z,22.70
2022-08-19T04:58:52.600Z,22.70
2022-08-19T04:59:58.264Z,22.70
2022-08-19T05:01:01.199Z,22.80
2022-08-19T05:02:04.449Z,22.80
2022-08-19T05:03:07.681Z,22.80
2022-08-19T05:04:10.527Z,22.90
2022-08-19T05:05:13.669Z,22.90
2022-08-19T05:06:17.147Z,22.90
2022-08-19T05:07:20.003Z,22.90
2022-08-19T05:08:30.969Z,22.90
2022-08-19T05:09:57.135Z,23.00
2022-08-19T05:10:55.425Z,23.00
2022-08-19T05:11:57.275Z,23.00
2022-08-19T05:12:59.877Z,23.00
2022-08-19T05:14:02.743Z,23.00
2022-08-19T05:15:06.944Z,23.10
2022-08-19T05:16:09.024Z,23.10
2022-08-19T05:17:27.114Z,23.10
2022-08-19T05:18:48.984Z,23.20
2022-08-19T05:20:09.693Z,23.10
2022-08-19T05:21:33.387Z,23.20
2022-08-19T05:22:38.418Z,23.20
2022-08-19T05:23:40.581Z,23.20
2022-08-19T05:24:56.631Z,23.20
2022-08-19T05:26:05.054Z,23.30
2022-08-19T05:27:07.503Z,23.30
2022-08-19T05:28:09.342Z,23.40
2022-08-19T05:29:11.677Z,23.40
2022-08-19T05:30:13.721Z,23.40
2022-08-19T05:31:15.676Z,23.50
2022-08-19T05:32:17.676Z,23.60
2022-08-19T05:33:20.194Z,23.60
2022-08-19T05:34:26.072Z,23.60
2022-08-19T05:35:29.546Z,23.70
2022-08-19T05:36:46.731Z,23.70
2022-08-19T05:37:48.655Z,23.70
2022-08-19T05:38:57.192Z,23.70
2022-08-19T05:39:59.150Z,23.80
2022-08-19T05:41:01.164Z,23.80
2022-08-19T05:42:07.680Z,23.80
2022-08-19T05:43:10.141Z,23.90
2022-08-19T05:44:12.068Z,23.90
2022-08-19T05:45:13.986Z,23.90
2022-08-19T05:46:27.920Z,23.90
2022-08-19T05:47:30.033Z,24.00
2022-08-19T05:48:32.375Z,24.10
2022-08-19T05:49:37.989Z,24.10
2022-08-19T05:50:41.728Z,24.10
2022-08-19T05:51:44.230Z,24.20
2022-08-19T05:52:50.722Z,24.20
2022-08-19T05:53:52.908Z,24.30
2022-08-19T05:54:57.065Z,24.30
2022-08-19T05:55:59.069Z,24.40
2022-08-19T05:57:02.191Z,24.40
2022-08-19T05:58:04.164Z,24.40
2022-08-19T05:59:10.504Z,24.40
2022-08-19T06:00:13.683Z,24.50
2022-08-19T06:01:19.022Z,24.50
2022-08-19T06:02:20.968Z,24.60
2022-08-19T06:03:22.924Z,24.60
2022-08-19T06:04:25.273Z,24.60
2022-08-19T06:05:27.159Z,24.70
2022-08-19T06:06:29.388Z,24.70
2022-08-19T06:07:32.170Z,24.70
2022-08-19T06:08:35.115Z,24.70
2022-08-19T06:09:38.380Z,24.80
2022-08-19T06:10:40.319Z,24.80
2022-08-19T06:11:46.285Z,24.80
2022-08-19T06:12:48.497Z,24.90
2022-08-19T06:13:59.712Z,24.90
2022-08-19T06:15:06.172Z,24.90
2022-08-19T06:16:11.337Z,25.00
2022-08-19T06:17:14.189Z,25.00
2022-08-19T06:18:17.718Z,25.10
2022-08-19T06:19:21.885Z,25.10
2022-08-19T06:20:52.352Z,25.10
2022-08-19T06:21:48.415Z,25.20
2022-08-19T06:22:52.493Z,25.20
2022-08-19T06:23:55.854Z,25.20
2022-08-19T06:24:57.839Z,25.30
2022-08-19T06:25:59.733Z,25.40
2022-08-19T06:27:04.027Z,25.40
2022-08-19T06:28:15.003Z,25.40
2022-08-19T06:29:23.507Z,25.40
2022-08-19T06:30:26.657Z,25.50
2022-08-19T06:31:32.409Z,25.60
2022-08-19T06:32:34.518Z,25.60
2022-08-19T06:33:37.089Z,25.60
2022-08-19T06:34:39.339Z,25.60
2022-08-19T06:35:42.284Z,25.70
2022-08-19T06:36:47.276Z,25.70
2022-08-19T06:37:49.216Z,25.80
2022-08-19T06:38:50.962Z,25.80
2022-08-19T06:39:52.779Z,25.80
2022-08-19T06:41:07.607Z,25.80
2022-08-19T06:42:12.829Z,25.90
2022-08-19T06:43:18.566Z,25.90
2022-08-19T06:44:22.309Z,25.90
2022-08-19T06:45:35.439Z,25.90
2022-08-19T06:46:39.240Z,25.90
2022-08-19T06:47:44.820Z,25.90
2022-08-19T06:48:48.004Z,26.00
2022-08-19T06:49:49.836Z,26.00
2022-08-19T06:50:52.554Z,26.00
2022-08-19T06:51:54.357Z,26.00
2022-08-19T06:52:56.290Z,26.10
2022-08-19T06:53:58.600Z,26.20
2022-08-19T06:55:00.744Z,26.20
2022-08-19T06:56:03.470Z,26.20
2022-08-19T06:57:07.662Z,26.30
2022-08-19T06:58:10.254Z,26.30
2022-08-19T06:59:16.445Z,26.40
2022-08-19T07:00:18.319Z,26.40
2022-08-19T07:01:21.271Z,26.40
2022-08-19T07:02:27.247Z,26.40
2022-08-19T07:03:32.215Z,26.40
2022-08-19T07:04:36.191Z,26.30
2022-08-19T07:05:45.405Z,26.30
2022-08-19T07:06:54.903Z,26.30
2022-08-19T07:08:00.617Z,26.30
2022-08-19T07:09:06.622Z,26.20
2022-08-19T07:10:09.546Z,26.20
2022-08-19T07:11:13.816Z,26.10
2022-08-19T07:12:16.567Z,26.10
2022-08-19T07:13:18.339Z,26.10
2022-08-19T07:14:22.413Z,26.00
2022-08-19T07:15:24.505Z,26.00
2022-08-19T07:16:28.833Z,26.00
2022-08-19T07:17:31.482Z,26.00
2022-08-19T07:18:37.073Z,26.00
2022-08-19T07:19:41.294Z,26.00
2022-08-19T07:20:44.126Z,26.00
2022-08-19T07:21:47.846Z,26.00
2022-08-19T07:22:50.272Z,25.90
2022-08-19T07:23:52.838Z,25.90
2022-08-19T07:24:54.635Z,25.80
2022-08-19T07:25:56.618Z,25.80
2022-08-19T07:27:03.444Z,25.80
2022-08-19T07:28:10.114Z,25.80
2022-08-19T07:29:28.533Z,25.80
2022-08-19T07:30:31.521Z,25.80
2022-08-19T07:31:37.782Z,25.80
2022-08-19T07:32:40.602Z,25.80
2022-08-19T07:33:44.001Z,25.80
2022-08-19T07:34:46.360Z,25.80
2022-08-19T07:35:48.170Z,25.90
2022-08-19T07:36:51.067Z,25.80
2022-08-19T07:37:53.942Z,25.80
2022-08-19T07:38:55.978Z,25.80
2022-08-19T07:39:57.967Z,25.90
2022-08-19T07:41:00.245Z,25.90
2022-08-19T07:42:07.878Z,25.90
2022-08-19T07:43:13.923Z,26.00
2022-08-19T07:44:16.754Z,26.00
2022-08-19T07:45:18.579Z,26.10
2022-08-19T07:46:21.474Z,26.10
2022-08-19T07:47:58.354Z,26.10
2022-08-19T07:48:48.787Z,26.20
2022-08-19T07:49:50.549Z,26.20
2022-08-19T07:50:58.029Z,26.30
2022-08-19T07:52:03.145Z,26.30
2022-08-19T07:53:04.846Z,26.40
2022-08-19T07:54:07.315Z,26.50
2022-08-19T07:55:13.602Z,26.60
2022-08-19T07:56:32.856Z,26.70
2022-08-19T07:57:34.812Z,26.70
2022-08-19T07:58:40.227Z,26.80
2022-08-19T07:59:42.198Z,26.90
2022-08-19T08:00:47.891Z,26.90
2022-08-19T08:01:51.154Z,26.90
2022-08-19T08:02:55.728Z,27.00
2022-08-19T08:04:16.983Z,27.00
2022-08-19T08:05:40.633Z,27.10
2022-08-19T08:07:03.650Z,27.10
2022-08-19T08:08:27.568Z,27.20
2022-08-19T08:09:42.140Z,27.20
2022-08-19T08:10:44.699Z,27.20
2022-08-19T08:12:33.066Z,27.30
2022-08-19T08:13:29.081Z,27.30
2022-08-19T08:14:36.042Z,27.40
2022-08-19T08:15:42.590Z,27.40
2022-08-19T08:16:47.022Z,27.50
2022-08-19T08:17:51.637Z,27.50
2022-08-19T08:18:53.568Z,27.60
2022-08-19T08:19:56.127Z,27.60
2022-08-19T08:20:59.137Z,27.60
2022-08-19T08:22:02.382Z,27.60
2022-08-19T08:23:22.563Z,27.70
2022-08-19T08:24:28.751Z,27.70
2022-08-19T08:25:32.402Z,27.70
2022-08-19T08:26:34.917Z,27.90
2022-08-19T08:27:40.460Z,28.00
2022-08-19T08:28:42.369Z,28.00
2022-08-19T08:29:50.033Z,28.10
2022-08-19T08:30:52.821Z,28.20
2022-08-19T08:31:59.591Z,28.20
2022-08-19T08:33:02.720Z,28.20
2022-08-19T08:34:04.820Z,28.20
2022-08-19T08:35:08.647Z,28.30
2022-08-19T08:36:10.742Z,28.30
2022-08-19T08:37:12.532Z,28.30
2022-08-19T08:38:19.170Z,28.30
2022-08-19T08:39:22.380Z,28.30
2022-08-19T08:40:42.581Z,28.40
2022-08-19T08:42:17.839Z,28.50
2022-08-19T08:43:26.546Z,28.50
2022-08-19T08:46:01.383Z,28.70
2022-08-19T08:47:08.817Z,28.80
2022-08-19T08:48:40.847Z,28.80
2022-08-19T08:49:56.201Z,28.90
2022-08-19T08:50:59.389Z,29.00
2022-08-19T08:52:08.623Z,29.10
2022-08-19T08:53:13.769Z,29.10
2022-08-19T08:54:20.437Z,29.10
2022-08-19T08:55:36.436Z,29.10
2022-08-19T08:56:44.445Z,29.20
2022-08-19T08:57:55.393Z,29.30
2022-08-19T08:59:09.369Z,29.30
2022-08-19T09:00:26.098Z,29.40
2022-08-19T09:01:30.253Z,29.40
2022-08-19T09:02:32.877Z,29.40
2022-08-19T09:03:34.680Z,29.40
2022-08-19T09:04:38.203Z,29.50
2022-08-19T09:05:58.800Z,29.50
2022-08-19T09:07:18.137Z,29.60
2022-08-19T09:08:36.808Z,29.70
2022-08-19T09:09:43.028Z,29.70
2022-08-19T09:10:56.592Z,29.70
2022-08-19T09:12:05.440Z,29.70
2022-08-19T09:13:28.362Z,29.70
2022-08-19T09:14:53.296Z,29.70
2022-08-19T09:16:04.809Z,29.70
2022-08-19T09:17:09.004Z,29.70
2022-08-19T09:18:15.343Z,29.80
2022-08-19T09:19:22.342Z,29.90
2022-08-19T09:20:26.155Z,30.00
2022-08-19T09:21:33.063Z,30.20
2022-08-19T09:22:40.230Z,30.30
2022-08-19T09:23:42.184Z,30.40
2022-08-19T09:24:44.751Z,30.50
2022-08-19T09:25:46.509Z,30.60
2022-08-19T09:26:52.771Z,30.70
2022-08-19T09:28:02.298Z,30.80
2022-08-19T09:29:06.780Z,30.80
2022-08-19T09:30:11.310Z,30.80
2022-08-19T09:31:15.780Z,30.80
2022-08-19T09:32:26.240Z,30.80
2022-08-19T09:33:28.826Z,30.80
2022-08-19T09:34:38.059Z,30.80
2022-08-19T09:35:53.389Z,30.80
2022-08-19T09:36:56.423Z,30.90
2022-08-19T09:38:00.019Z,31.00
2022-08-19T09:39:02.297Z,31.00
2022-08-19T09:40:05.457Z,30.90
2022-08-19T09:41:14.581Z,30.90
2022-08-19T09:42:29.748Z,30.90
2022-08-19T09:43:44.541Z,31.00
2022-08-19T09:44:49.471Z,30.90
2022-08-19T09:45:51.183Z,30.90
2022-08-19T09:46:53.320Z,30.80
2022-08-19T09:47:55.629Z,30.70
2022-08-19T09:49:06.360Z,30.70
2022-08-19T09:50:10.896Z,30.70
2022-08-19T09:51:26.972Z,30.70
2022-08-19T09:52:32.466Z,30.70
2022-08-19T09:53:38.967Z,30.70
2022-08-19T09:54:44.160Z,30.80
2022-08-19T09:55:46.101Z,30.80
2022-08-19T09:56:47.952Z,30.80
2022-08-19T09:57:49.793Z,30.80
2022-08-19T09:58:52.124Z,30.80
2022-08-19T09:59:54.588Z,30.80
2022-08-19T10:00:57.808Z,30.70
2022-08-19T10:02:03.584Z,30.80
2022-08-19T10:03:12.612Z,30.80
2022-08-19T10:04:20.102Z,30.80
2022-08-19T10:05:42.707Z,30.80
2022-08-19T10:06:46.777Z,30.80
2022-08-19T10:07:49.043Z,30.70
2022-08-19T10:08:52.604Z,30.60
2022-08-19T10:09:54.602Z,30.60
2022-08-19T10:10:58.943Z,30.60
2022-08-19T10:12:02.458Z,30.70
2022-08-19T10:13:05.005Z,30.70
2022-08-19T10:14:07.904Z,30.60
2022-08-19T10:15:10.150Z,30.70
2022-08-19T10:16:15.430Z,30.70
2022-08-19T10:17:21.426Z,30.80
2022-08-19T10:18:26.794Z,30.80
2022-08-19T10:19:33.448Z,30.90
2022-08-19T10:20:36.660Z,30.90
2022-08-19T10:21:41.390Z,30.90
2022-08-19T10:22:44.286Z,30.90
2022-08-19T10:23:48.149Z,30.90
2022-08-19T10:24:50.830Z,30.80
2022-08-19T10:25:54.564Z,30.80
2022-08-19T10:26:59.145Z,30.90
2022-08-19T10:28:02.023Z,30.90
2022-08-19T10:29:06.104Z,31.00
2022-08-19T10:30:11.838Z,31.00
2022-08-19T10:31:21.482Z,31.10
2022-08-19T10:32:46.369Z,31.10
2022-08-19T10:33:53.332Z,31.10
2022-08-19T10:34:57.414Z,31.10
2022-08-19T10:36:08.143Z,31.10
2022-08-19T10:37:10.770Z,31.20
2022-08-19T10:38:16.031Z,31.10
2022-08-19T10:39:18.257Z,31.20
2022-08-19T10:40:25.886Z,31.20
2022-08-19T10:41:30.294Z,31.30
2022-08-19T10:42:32.734Z,31.30
2022-08-19T10:43:38.951Z,31.40
2022-08-19T10:44:41.147Z,31.40
2022-08-19T10:45:52.695Z,31.40
2022-08-19T10:46:54.600Z,31.40
2022-08-19T10:47:58.701Z,31.50
2022-08-19T10:49:02.591Z,31.50
2022-08-19T10:50:28.848Z,31.60
2022-08-19T10:51:51.627Z,31.60
2022-08-19T10:52:53.425Z,31.50
2022-08-19T10:54:00.081Z,31.60
2022-08-19T10:55:23.026Z,31.90
2022-08-19T10:56:44.171Z,32.30
2022-08-19T10:58:01.682Z,33.40
2022-08-19T10:59:05.574Z,34.50
2022-08-19T11:00:07.828Z,35.60
2022-08-19T11:01:09.672Z,35.90
2022-08-19T11:02:13.011Z,36.30
2022-08-19T11:03:14.730Z,36.70
2022-08-19T11:04:18.449Z,37.20
2022-08-19T11:05:24.338Z,37.40
2022-08-19T11:06:26.413Z,37.60
2022-08-19T11:07:28.217Z,37.70
2022-08-19T11:08:31.779Z,38.10
2022-08-19T11:09:39.888Z,38.40
2022-08-19T11:10:46.797Z,38.60
2022-08-19T11:11:54.455Z,38.60
2022-08-19T11:12:57.145Z,38.50
2022-08-19T11:13:59.332Z,38.70
2022-08-19T11:15:01.274Z,38.80
2022-08-19T11:16:14.290Z,39.00
2022-08-19T11:17:16.428Z,39.10
2022-08-19T11:18:18.493Z,39.10
2022-08-19T11:19:21.007Z,39.40
2022-08-19T11:20:24.621Z,39.90
2022-08-19T11:21:30.217Z,39.60
2022-08-19T11:22:35.386Z,39.10
2022-08-19T11:23:42.856Z,38.70
2022-08-19T11:24:44.611Z,38.30
2022-08-19T11:25:47.028Z,38.00
2022-08-19T11:26:51.164Z,38.10
2022-08-19T11:27:53.167Z,38.40
2022-08-19T11:28:56.091Z,38.70
2022-08-19T11:29:57.835Z,38.80
2022-08-19T11:30:59.696Z,38.90
2022-08-19T11:32:05.751Z,39.00
2022-08-19T11:33:07.579Z,39.30
2022-08-19T11:34:12.911Z,39.40
2022-08-19T11:35:14.736Z,39.80
2022-08-19T11:36:17.224Z,40.10
2022-08-19T11:37:18.953Z,40.20
2022-08-19T11:38:20.751Z,40.40
2022-08-19T11:39:23.498Z,40.20
2022-08-19T11:40:25.568Z,40.30
2022-08-19T11:41:27.551Z,40.50
2022-08-19T11:42:47.787Z,40.90
2022-08-19T11:43:50.231Z,41.30
2022-08-19T11:44:52.814Z,41.40
2022-08-19T11:45:56.214Z,41.30
2022-08-19T11:46:58.751Z,41.20
2022-08-19T11:48:11.152Z,41.10
2022-08-19T11:49:17.638Z,41.10
2022-08-19T11:50:19.793Z,40.90
2022-08-19T11:51:25.545Z,40.70
2022-08-19T11:52:27.507Z,40.60
2022-08-19T11:53:31.334Z,40.50
2022-08-19T11:54:33.628Z,39.80
2022-08-19T11:55:43.310Z,39.60
2022-08-19T11:56:47.317Z,39.80
2022-08-19T11:57:50.662Z,40.00
2022-08-19T11:58:53.840Z,40.30
2022-08-19T11:59:55.592Z,40.60
2022-08-19T12:00:57.838Z,41.00
2022-08-19T12:02:00.172Z,40.80
2022-08-19T12:03:02.261Z,41.10
2022-08-19T12:04:07.515Z,41.10
2022-08-19T12:05:12.813Z,40.80
2022-08-19T12:06:18.515Z,40.70
2022-08-19T12:07:20.279Z,40.90
2022-08-19T12:08:22.209Z,41.20
2022-08-19T12:09:24.009Z,41.40
2022-08-19T12:10:26.613Z,41.50
2022-08-19T12:11:29.051Z,41.70
2022-08-19T12:12:32.990Z,41.90
2022-08-19T12:13:36.194Z,41.90
2022-08-19T12:14:38.465Z,41.60
2022-08-19T12:15:41.830Z,41.10
2022-08-19T12:16:51.304Z,40.60
2022-08-19T12:17:56.253Z,40.40
2022-08-19T12:18:59.941Z,39.80
2022-08-19T12:20:01.787Z,39.10
2022-08-19T12:21:04.353Z,38.50
2022-08-19T12:22:07.097Z,38.30
2022-08-19T12:23:10.649Z,38.00
2022-08-19T12:24:14.527Z,37.80
2022-08-19T12:25:16.496Z,37.70
2022-08-19T12:26:19.085Z,37.50
2022-08-19T12:27:40.417Z,37.20
2022-08-19T12:28:43.127Z,37.00
2022-08-19T12:29:44.841Z,36.80
2022-08-19T12:30:47.643Z,36.70
2022-08-19T12:31:49.377Z,36.70
2022-08-19T12:32:52.402Z,36.90
2022-08-19T12:33:54.268Z,37.20
2022-08-19T12:34:56.148Z,37.20
2022-08-19T12:36:05.577Z,37.10
2022-08-19T12:37:07.820Z,37.00
2022-08-19T12:38:09.952Z,36.90
2022-08-19T12:39:11.728Z,36.80
2022-08-19T12:40:18.933Z,36.70
2022-08-19T12:41:22.921Z,36.30
2022-08-19T12:42:25.078Z,36.10
2022-08-19T12:43:27.621Z,36.00
2022-08-19T12:44:32.045Z,36.00
2022-08-19T12:45:35.774Z,36.00
2022-08-19T12:46:39.585Z,36.00
2022-08-19T12:47:42.290Z,36.30
2022-08-19T12:48:48.315Z,36.70
2022-08-19T12:49:56.100Z,37.30
2022-08-19T12:50:58.138Z,37.80
2022-08-19T12:52:01.314Z,38.00
2022-08-19T12:53:03.064Z,37.80
2022-08-19T12:54:05.967Z,37.80
2022-08-19T12:55:08.809Z,37.60
2022-08-19T12:56:12.823Z,37.60
2022-08-19T12:57:14.702Z,37.80
2022-08-19T12:58:16.471Z,38.20
2022-08-19T12:59:19.059Z,38.40
2022-08-19T13:00:22.573Z,38.80
2022-08-19T13:01:24.405Z,39.20
2022-08-19T13:02:27.424Z,39.40
2022-08-19T13:03:30.556Z,39.60
2022-08-19T13:04:32.694Z,39.80
2022-08-19T13:05:35.210Z,40.00
2022-08-19T13:06:37.954Z,40.10
2022-08-19T13:07:41.117Z,40.20
2022-08-19T13:08:42.969Z,40.40
2022-08-19T13:09:48.448Z,40.50
2022-08-19T13:10:50.189Z,40.20
2022-08-19T13:11:51.949Z,40.10
2022-08-19T13:12:54.384Z,40.10
2022-08-19T13:13:56.309Z,40.30
2022-08-19T13:14:58.235Z,40.20
2022-08-19T13:16:04.269Z,39.90
2022-08-19T13:17:06.021Z,39.70
2022-08-19T13:18:09.965Z,39.40
2022-08-19T13:19:13.166Z,39.40
2022-08-19T13:20:14.953Z,39.30
2022-08-19T13:21:17.086Z,39.30
2022-08-19T13:22:18.999Z,39.30
2022-08-19T13:23:20.845Z,39.40
2022-08-19T13:24:22.827Z,39.70
2022-08-19T13:25:31.558Z,39.80
2022-08-19T13:26:33.613Z,39.90
2022-08-19T13:27:36.363Z,39.80
2022-08-19T13:28:57.263Z,39.70
2022-08-19T13:30:20.832Z,39.60
2022-08-19T13:32:03.530Z,39.70
2022-08-19T13:33:12.012Z,39.70
2022-08-19T13:34:17.203Z,39.60
2022-08-19T13:35:19.272Z,39.60
2022-08-19T13:36:21.065Z,39.80
2022-08-19T13:37:41.972Z,39.90
2022-08-19T13:38:44.816Z,39.70
2022-08-19T13:39:48.235Z,39.40
2022-08-19T13:40:52.622Z,39.00
2022-08-19T13:41:54.371Z,38.60
2022-08-19T13:42:57.390Z,38.40
2022-08-19T13:43:59.180Z,38.40
2022-08-19T13:45:01.345Z,38.40
2022-08-19T13:46:11.366Z,38.40
2022-08-19T13:47:14.959Z,38.50
2022-08-19T13:48:19.987Z,38.50
2022-08-19T13:49:24.113Z,38.50
2022-08-19T13:50:34.747Z,38.50
2022-08-19T13:51:36.526Z,38.60
2022-08-19T13:52:39.240Z,38.60
2022-08-19T13:53:46.239Z,38.50
2022-08-19T13:54:49.646Z,38.30
2022-08-19T13:55:52.566Z,38.00
2022-08-19T13:56:54.533Z,37.80
2022-08-19T13:57:59.635Z,37.60
2022-08-19T13:59:01.748Z,37.30
2022-08-19T14:00:07.475Z,36.90
2022-08-19T14:01:10.764Z,36.50
2022-08-19T14:02:15.807Z,36.20
2022-08-19T14:03:17.982Z,36.00
2022-08-19T14:04:19.815Z,35.90